createdAt,value
2023-05-01T00:01:55.035Z,2.54
2023-05-01T00:04:22.528Z,2.54
2023-05-01T00:06:49.374Z,2.52
2023-05-01T00:09:16.213Z,2.51
2023-05-01T00:11:42.791Z,2.48
2023-05-01T00:14:09.541Z,2.44
2023-05-01T00:16:36.592Z,2.45
2023-05-01T00:19:04.884Z,2.44
2023-05-01T00:21:31.412Z,2.42
2023-05-01T00:23:58.531Z,2.40
2023-05-01T00:26:29.709Z,2.41
2023-05-01T00:28:56.312Z,2.45
2023-05-01T00:31:25.519Z,2.45
2023-05-01T00:33:52.392Z,2.40
2023-05-01T00:36:19.133Z,2.41
2023-05-01T00:38:46.327Z,2.42
2023-05-01T00:41:12.917Z,2.42
2023-05-01T00:43:39.795Z,2.41
2023-05-01T00:46:08.129Z,2.42
2023-05-01T00:48:35.337Z,2.37
2023-05-01T00:51:05.947Z,2.33
2023-05-01T00:53:33.733Z,2.31
2023-05-01T00:56:00.909Z,2.26
2023-05-01T00:58:27.718Z,2.24
2023-05-01T01:00:55.151Z,2.19
2023-05-01T01:03:21.806Z,2.19
2023-05-01T01:05:56.806Z,2.14
2023-05-01T01:08:43.403Z,2.14
2023-05-01T01:11:34.197Z,2.10
2023-05-01T01:14:11.692Z,2.07
2023-05-01T01:17:09.064Z,2.06
2023-05-01T01:19:41.835Z,2.05
2023-05-01T01:22:13.429Z,2.03
2023-05-01T01:25:06.395Z,2.02
2023-05-01T01:27:47.401Z,1.99
2023-05-01T01:30:56.708Z,2.02
2023-05-01T01:33:41.827Z,1.95
2023-05-01T01:36:13.923Z,1.92
2023-05-01T01:38:44.075Z,1.89
2023-05-01T01:41:17.901Z,1.89
2023-05-01T01:43:50.627Z,1.86
2023-05-01T01:46:17.928Z,1.85
2023-05-01T01:48:48.047Z,1.80
2023-05-01T01:51:18.463Z,1.79
2023-05-01T01:53:50.388Z,1.79
2023-05-01T01:56:19.899Z,1.79
2023-05-01T01:58:48.240Z,1.78
2023-05-01T02:01:16.337Z,1.73
2023-05-01T02:03:45.983Z,1.72
2023-05-01T02:06:14.438Z,1.69
2023-05-01T02:08:42.508Z,1.70
2023-05-01T02:11:11.204Z,1.68
2023-05-01T02:13:39.002Z,1.68
2023-05-01T02:16:08.331Z,1.68
2023-05-01T02:18:36.739Z,1.65
2023-05-01T02:21:05.108Z,1.63
2023-05-01T02:23:33.465Z,1.61
2023-05-01T02:26:03.835Z,1.58
2023-05-01T02:28:31.361Z,1.59
2023-05-01T02:30:59.051Z,1.61
2023-05-01T02:33:25.971Z,1.58
2023-05-01T02:35:52.532Z,1.55
2023-05-01T02:38:19.257Z,1.55
2023-05-01T02:40:52.090Z,1.54
2023-05-01T02:43:21.190Z,1.52
2023-05-01T02:45:49.323Z,1.56
2023-05-01T02:48:23.582Z,1.56
2023-05-01T02:50:51.527Z,1.55
2023-05-01T02:53:18.813Z,1.49
2023-05-01T02:55:45.544Z,1.48
2023-05-01T02:58:16.854Z,1.47
2023-05-01T03:00:44.622Z,1.44
2023-05-01T03:03:12.088Z,1.42
2023-05-01T03:05:41.061Z,1.40
2023-05-01T03:08:07.906Z,1.38
2023-05-01T03:10:34.552Z,1.40
2023-05-01T03:13:01.450Z,1.41
2023-05-01T03:15:28.134Z,1.42
2023-05-01T03:17:54.894Z,1.42
2023-05-01T03:20:21.519Z,1.40
2023-05-01T03:22:48.133Z,1.40
2023-05-01T03:25:15.414Z,1.40
2023-05-01T03:27:42.452Z,1.42
2023-05-01T03:30:10.098Z,1.41
2023-05-01T03:32:37.108Z,1.40
2023-05-01T03:35:04.040Z,1.35
2023-05-01T03:37:31.083Z,1.40
2023-05-01T03:39:57.972Z,1.37
2023-05-01T03:42:24.685Z,1.35
2023-05-01T03:44:51.420Z,1.34
2023-05-01T03:47:19.194Z,1.34
2023-05-01T03:49:46.269Z,1.34
2023-05-01T03:52:13.138Z,1.37
2023-05-01T03:54:39.938Z,1.40
2023-05-01T03:57:06.957Z,1.41
2023-05-01T03:59:33.529Z,1.41
2023-05-01T04:02:00.227Z,1.45
2023-05-01T04:04:27.178Z,1.47
2023-05-01T04:06:53.802Z,1.49
2023-05-01T04:09:20.407Z,1.56
2023-05-01T04:11:47.148Z,1.62
2023-05-01T04:14:13.762Z,1.76
2023-05-01T04:16:40.709Z,1.82
2023-05-01T04:19:07.695Z,1.95
2023-05-01T04:21:34.896Z,2.11
2023-05-01T04:24:01.504Z,2.33
2023-05-01T04:26:28.184Z,2.57
2023-05-01T04:28:54.919Z,2.66
2023-05-01T04:31:21.515Z,2.88
2023-05-01T04:33:48.206Z,3.20
2023-05-01T04:36:14.881Z,3.34
2023-05-01T04:38:41.469Z,3.67
2023-05-01T04:41:08.045Z,3.85
2023-05-01T04:43:34.606Z,3.97
2023-05-01T04:46:01.275Z,4.18
2023-05-01T04:48:27.805Z,4.21
2023-05-01T04:50:55.328Z,4.31
2023-05-01T04:53:21.927Z,4.40
2023-05-01T04:55:48.525Z,4.56
2023-05-01T04:58:15.089Z,4.70
2023-05-01T05:00:41.681Z,4.88
2023-05-01T05:03:08.338Z,4.93
2023-05-01T05:05:35.434Z,4.95
2023-05-01T05:08:02.998Z,5.08
2023-05-01T05:10:29.635Z,5.14
2023-05-01T05:12:56.821Z,5.30
2023-05-01T05:15:23.430Z,5.43
2023-05-01T05:17:50.120Z,5.58
2023-05-01T05:20:16.780Z,5.66
2023-05-01T05:22:43.357Z,5.77
2023-05-01T05:25:10.048Z,5.93
2023-05-01T05:27:38.116Z,6.10
2023-05-01T05:30:05.962Z,6.30
2023-05-01T05:32:33.538Z,6.42
2023-05-01T05:35:00.334Z,6.65
2023-05-01T05:37:26.974Z,6.75
2023-05-01T05:39:53.925Z,6.96
2023-05-01T05:42:20.699Z,7.77
2023-05-01T05:44:47.309Z,9.08
2023-05-01T05:47:13.809Z,9.77
2023-05-01T05:49:40.793Z,10.69
2023-05-01T05:52:07.312Z,11.67
2023-05-01T05:54:33.856Z,12.28
2023-05-01T05:57:00.516Z,12.34
2023-05-01T05:59:27.553Z,12.98
2023-05-01T06:01:54.128Z,13.43
2023-05-01T06:04:20.736Z,13.02
2023-05-01T06:06:48.473Z,13.56
2023-05-01T06:09:16.103Z,13.67
2023-05-01T06:11:42.905Z,14.55
2023-05-01T06:14:09.523Z,14.55
2023-05-01T06:16:36.233Z,14.89
2023-05-01T06:19:02.846Z,15.50
2023-05-01T06:21:29.484Z,16.19
2023-05-01T06:23:56.033Z,16.73
2023-05-01T06:26:23.196Z,17.51
2023-05-01T06:28:49.801Z,18.37
2023-05-01T06:31:16.326Z,18.26
2023-05-01T06:33:42.902Z,18.62
2023-05-01T06:36:09.738Z,18.11
2023-05-01T06:38:36.288Z,18.69
2023-05-01T06:41:05.036Z,17.93
2023-05-01T06:43:31.752Z,17.53
2023-05-01T06:45:59.577Z,17.39
2023-05-01T06:48:26.240Z,18.29
2023-05-01T06:50:52.884Z,18.14
2023-05-01T06:53:19.517Z,18.98
2023-05-01T06:55:46.163Z,19.70
2023-05-01T06:58:23.539Z,19.32
2023-05-01T07:00:51.004Z,19.85
2023-05-01T07:03:17.675Z,19.51
2023-05-01T07:05:44.587Z,20.26
2023-05-01T07:08:11.226Z,19.82
2023-05-01T07:10:39.304Z,19.47
2023-05-01T07:13:08.229Z,19.57
2023-05-01T07:15:34.806Z,20.04
2023-05-01T07:18:03.167Z,19.09
2023-05-01T07:20:30.537Z,19.16
2023-05-01T07:22:57.068Z,19.19
2023-05-01T07:25:25.015Z,19.37
2023-05-01T07:27:51.541Z,19.92
2023-05-01T07:30:18.196Z,20.72
2023-05-01T07:32:45.108Z,20.89
2023-05-01T07:35:11.790Z,20.96
2023-05-01T07:37:38.418Z,21.47
2023-05-01T07:40:05.540Z,22.10
2023-05-01T07:42:32.185Z,21.86
2023-05-01T07:44:58.732Z,21.99
2023-05-01T07:47:26.265Z,21.59
2023-05-01T07:49:52.851Z,21.17
2023-05-01T07:52:19.474Z,20.24
2023-05-01T07:54:50.333Z,20.77
2023-05-01T07:57:16.922Z,21.31
2023-05-01T07:59:43.540Z,21.90
2023-05-01T08:02:10.317Z,20.73
2023-05-01T08:04:37.151Z,21.04
2023-05-01T08:07:04.351Z,21.49
2023-05-01T08:09:31.155Z,22.00
2023-05-01T08:11:57.710Z,21.66
2023-05-01T08:14:24.452Z,22.16
2023-05-01T08:16:55.348Z,21.65
2023-05-01T08:19:23.127Z,21.24
2023-05-01T08:21:50.017Z,21.77
2023-05-01T08:24:17.107Z,22.48
2023-05-01T08:26:43.740Z,22.81
2023-05-01T08:29:10.663Z,22.57
2023-05-01T08:31:39.175Z,22.44
2023-05-01T08:34:06.246Z,22.36
2023-05-01T08:36:33.028Z,22.20
2023-05-01T08:38:59.742Z,21.72
2023-05-01T08:41:28.631Z,22.02
2023-05-01T08:43:57.497Z,22.65
2023-05-01T08:46:33.794Z,23.86
2023-05-01T08:49:02.446Z,24.14
2023-05-01T08:51:31.230Z,23.45
2023-05-01T08:53:59.880Z,22.74
2023-05-01T08:56:26.715Z,23.41
2023-05-01T08:58:55.686Z,22.87
2023-05-01T09:01:23.191Z,23.08
2023-05-01T09:03:52.078Z,23.38
2023-05-01T09:06:19.908Z,22.95
2023-05-01T09:08:46.547Z,23.19
2023-05-01T09:11:13.164Z,23.98
2023-05-01T09:13:39.910Z,25.13
2023-05-01T09:16:07.555Z,24.72
2023-05-01T09:18:34.978Z,24.87
2023-05-01T09:21:02.126Z,25.46
2023-05-01T09:23:29.390Z,23.53
2023-05-01T09:25:57.511Z,24.32
2023-05-01T09:28:47.338Z,23.92
2023-05-01T09:31:25.186Z,25.37
2023-05-01T09:34:03.028Z,25.73
2023-05-01T09:36:32.446Z,25.48
2023-05-01T09:39:03.798Z,26.67
2023-05-01T09:41:33.880Z,25.75
2023-05-01T09:44:01.468Z,25.99
2023-05-01T09:46:28.196Z,26.42
2023-05-01T09:48:59.850Z,26.25
2023-05-01T09:51:31.881Z,25.03
2023-05-01T09:54:02.467Z,26.21
2023-05-01T09:56:34.025Z,25.30
2023-05-01T09:59:20.238Z,25.44
2023-05-01T10:01:52.162Z,24.21
2023-05-01T10:04:29.928Z,24.31
2023-05-01T10:06:57.077Z,25.15
2023-05-01T10:09:28.566Z,25.70
2023-05-01T10:11:57.748Z,25.92
2023-05-01T10:14:26.621Z,25.89
2023-05-01T10:16:53.616Z,26.42
2023-05-01T10:19:21.288Z,26.50
2023-05-01T10:21:47.921Z,24.82
2023-05-01T10:24:16.850Z,27.04
2023-05-01T10:26:44.010Z,27.79
2023-05-01T10:29:12.032Z,28.79
2023-05-01T10:31:39.434Z,28.54
2023-05-01T10:34:08.287Z,27.20
2023-05-01T10:36:42.958Z,25.96
2023-05-01T10:39:35.037Z,27.21
2023-05-01T10:42:06.558Z,26.36
2023-05-01T10:44:35.031Z,27.31
2023-05-01T10:47:25.128Z,28.45
2023-05-01T10:50:17.788Z,26.26
2023-05-01T10:53:12.568Z,26.98
2023-05-01T10:55:42.909Z,28.26
2023-05-01T10:58:15.068Z,28.50
2023-05-01T11:00:42.269Z,27.88
2023-05-01T11:03:20.994Z,28.76
2023-05-01T11:05:59.915Z,28.85
2023-05-01T11:08:34.278Z,29.36
2023-05-01T11:11:27.512Z,28.76
2023-05-01T11:14:08.576Z,28.68
2023-05-01T11:16:38.528Z,27.66
2023-05-01T11:19:28.334Z,27.51
2023-05-01T11:21:57.044Z,28.16
2023-05-01T11:24:32.895Z,27.39
2023-05-01T11:27:00.146Z,25.64
2023-05-01T11:29:32.668Z,25.02
2023-05-01T11:32:00.780Z,24.37
2023-05-01T11:34:28.037Z,23.83
2023-05-01T11:36:54.721Z,24.34
2023-05-01T11:39:22.090Z,24.48
2023-05-01T11:41:48.830Z,24.78
2023-05-01T11:44:17.449Z,25.99
2023-05-01T11:46:44.452Z,25.84
2023-05-01T11:49:11.488Z,26.61
2023-05-01T11:51:38.331Z,25.77
2023-05-01T11:54:05.687Z,25.96
2023-05-01T11:56:33.581Z,26.37
2023-05-01T11:59:13.935Z,26.32
2023-05-01T12:01:41.949Z,25.61
2023-05-01T12:04:08.728Z,25.06
2023-05-01T12:06:45.726Z,25.78
2023-05-01T12:09:26.845Z,27.69
2023-05-01T12:11:53.993Z,27.99
2023-05-01T12:14:22.031Z,24.78
2023-05-01T12:16:49.440Z,24.28
2023-05-01T12:19:18.136Z,25.51
2023-05-01T12:21:44.792Z,26.47
2023-05-01T12:24:12.971Z,24.48
2023-05-01T12:26:40.048Z,24.62
2023-05-01T12:29:11.558Z,26.50
2023-05-01T12:31:47.279Z,23.93
2023-05-01T12:34:13.992Z,25.27
2023-05-01T12:36:40.737Z,24.55
2023-05-01T12:39:09.670Z,23.65
2023-05-01T12:41:49.582Z,24.29
2023-05-01T12:44:24.275Z,25.44
2023-05-01T12:46:56.422Z,23.56
2023-05-01T12:49:24.073Z,24.69
2023-05-01T12:51:52.638Z,25.41
2023-05-01T12:54:29.328Z,25.81
2023-05-01T12:57:15.622Z,26.53
2023-05-01T12:59:46.636Z,24.72
2023-05-01T13:02:15.944Z,25.36
2023-05-01T13:04:49.407Z,26.11
2023-05-01T13:07:18.367Z,26.76
2023-05-01T13:09:57.730Z,26.74
2023-05-01T13:12:25.558Z,23.88
2023-05-01T13:14:52.831Z,21.83
2023-05-01T13:17:26.501Z,23.49
2023-05-01T13:19:57.610Z,24.27
2023-05-01T13:22:30.627Z,24.89
2023-05-01T13:24:57.478Z,25.30
2023-05-01T13:27:24.304Z,25.54
2023-05-01T13:29:58.468Z,24.47
2023-05-01T13:32:26.329Z,24.22
2023-05-01T13:34:56.032Z,23.36
2023-05-01T13:37:23.041Z,23.62
2023-05-01T13:39:49.705Z,23.16
2023-05-01T13:42:25.715Z,23.39
2023-05-01T13:44:55.964Z,23.15
2023-05-01T13:47:26.646Z,23.25
2023-05-01T13:49:53.959Z,23.39
2023-05-01T13:52:20.998Z,22.32
2023-05-01T13:54:48.465Z,23.09
2023-05-01T13:57:17.157Z,23.53
2023-05-01T13:59:46.934Z,23.39
2023-05-01T14:02:29.578Z,23.55
2023-05-01T14:04:58.587Z,23.53
2023-05-01T14:07:27.500Z,23.30
2023-05-01T14:09:58.047Z,23.09
2023-05-01T14:12:28.209Z,22.88
2023-05-01T14:14:54.947Z,23.07
2023-05-01T14:17:32.669Z,22.87
2023-05-01T14:19:59.364Z,22.70
2023-05-01T14:22:29.844Z,22.58
2023-05-01T14:24:58.649Z,21.95
2023-05-01T14:27:25.641Z,22.12
2023-05-01T14:29:52.168Z,22.02
2023-05-01T14:32:18.816Z,21.49
2023-05-01T14:34:46.070Z,21.82
2023-05-01T14:37:15.108Z,22.35
2023-05-01T14:39:41.915Z,21.99
2023-05-01T14:42:08.648Z,22.21
2023-05-01T14:44:40.166Z,22.58
2023-05-01T14:47:09.392Z,22.19
2023-05-01T14:49:36.081Z,22.14
2023-05-01T14:52:02.826Z,21.77
2023-05-01T14:54:44.933Z,21.90
2023-05-01T14:57:11.566Z,21.93
2023-05-01T14:59:38.386Z,21.93
2023-05-01T15:02:05.014Z,22.20
2023-05-01T15:04:31.882Z,22.14
2023-05-01T15:06:58.592Z,22.16
2023-05-01T15:09:25.115Z,21.93
2023-05-01T15:11:51.831Z,21.86
2023-05-01T15:14:18.481Z,21.89
2023-05-01T15:16:45.158Z,21.58
2023-05-01T15:19:11.720Z,21.71
2023-05-01T15:21:38.314Z,21.78
2023-05-01T15:24:04.937Z,21.72
2023-05-01T15:26:31.687Z,21.59
2023-05-01T15:28:58.586Z,21.47
2023-05-01T15:31:25.391Z,21.54
2023-05-01T15:33:51.982Z,21.40
2023-05-01T15:36:18.720Z,21.31
2023-05-01T15:38:46.691Z,21.20
2023-05-01T15:41:13.381Z,20.90
2023-05-01T15:43:40.951Z,20.81
2023-05-01T15:46:07.594Z,20.72
2023-05-01T15:48:34.292Z,20.52
2023-05-01T15:51:00.927Z,20.42
2023-05-01T15:53:27.712Z,20.31
2023-05-01T15:55:58.349Z,19.81
2023-05-01T15:58:24.968Z,19.77
2023-05-01T16:00:51.744Z,20.11
2023-05-01T16:03:18.741Z,19.97
2023-05-01T16:05:49.323Z,19.85
2023-05-01T16:08:17.374Z,19.97
2023-05-01T16:10:44.026Z,19.80
2023-05-01T16:13:11.184Z,19.84
2023-05-01T16:15:38.114Z,19.69
2023-05-01T16:18:05.194Z,19.74
2023-05-01T16:20:43.196Z,19.26
2023-05-01T16:23:11.377Z,19.46
2023-05-01T16:25:42.445Z,19.41
2023-05-01T16:28:09.336Z,19.67
2023-05-01T16:30:40.260Z,19.57
2023-05-01T16:33:18.262Z,19.36
2023-05-01T16:35:48.471Z,19.46
2023-05-01T16:38:15.894Z,19.49
2023-05-01T16:40:43.998Z,19.59
2023-05-01T16:43:11.218Z,19.69
2023-05-01T16:45:38.830Z,19.59
2023-05-01T16:48:06.038Z,19.50
2023-05-01T16:50:33.890Z,19.08
2023-05-01T16:53:00.862Z,19.05
2023-05-01T16:55:27.944Z,19.13
2023-05-01T16:57:54.553Z,19.10
2023-05-01T17:00:21.235Z,19.01
2023-05-01T17:02:49.812Z,18.94
2023-05-01T17:05:16.574Z,18.92
2023-05-01T17:07:43.195Z,18.79
2023-05-01T17:10:10.654Z,18.75
2023-05-01T17:12:37.446Z,18.65
2023-05-01T17:15:04.717Z,18.50
2023-05-01T17:17:31.275Z,18.47
2023-05-01T17:19:58.002Z,18.31
2023-05-01T17:22:25.825Z,18.30
2023-05-01T17:24:53.290Z,18.16
2023-05-01T17:27:19.960Z,18.07
2023-05-01T17:29:46.676Z,17.96
2023-05-01T17:32:16.025Z,17.78
2023-05-01T17:34:52.651Z,17.66
2023-05-01T17:37:19.231Z,17.55
2023-05-01T17:39:45.954Z,17.43
2023-05-01T17:42:12.500Z,17.34
2023-05-01T17:44:39.101Z,17.20
2023-05-01T17:47:05.685Z,17.07
2023-05-01T17:49:33.044Z,16.95
2023-05-01T17:51:59.734Z,16.83
2023-05-01T17:54:26.396Z,16.73
2023-05-01T17:56:53.051Z,16.62
2023-05-01T17:59:19.682Z,16.53
2023-05-01T18:01:46.346Z,16.46
2023-05-01T18:04:13.173Z,16.36
2023-05-01T18:06:41.434Z,16.26
2023-05-01T18:09:08.832Z,16.15
2023-05-01T18:11:35.395Z,16.06
2023-05-01T18:14:02.534Z,15.95
2023-05-01T18:16:29.182Z,15.88
2023-05-01T18:18:58.030Z,15.72
2023-05-01T18:21:25.249Z,15.64
2023-05-01T18:23:54.649Z,15.54
2023-05-01T18:26:21.716Z,15.39
2023-05-01T18:28:48.408Z,15.30
2023-05-01T18:31:15.752Z,15.19
2023-05-01T18:33:42.532Z,15.10
2023-05-01T18:36:10.614Z,14.98
2023-05-01T18:38:37.262Z,14.89
2023-05-01T18:41:04.204Z,14.81
2023-05-01T18:43:31.724Z,14.72
2023-05-01T18:45:59.039Z,14.64
2023-05-01T18:48:25.611Z,14.57
2023-05-01T18:51:07.101Z,14.51
2023-05-01T18:53:35.593Z,14.44
2023-05-01T18:56:02.214Z,14.34
2023-05-01T18:58:28.898Z,14.28
2023-05-01T19:00:55.716Z,14.21
2023-05-01T19:03:22.361Z,14.14
2023-05-01T19:05:49.220Z,14.09
2023-05-01T19:08:15.865Z,14.04
2023-05-01T19:10:42.483Z,13.96
2023-05-01T19:13:09.099Z,13.90
2023-05-01T19:15:36.280Z,13.84
2023-05-01T19:18:03.047Z,13.80
2023-05-01T19:20:29.721Z,13.74
2023-05-01T19:22:56.402Z,13.72
2023-05-01T19:25:24.095Z,13.62
2023-05-01T19:27:51.316Z,13.58
2023-05-01T19:30:17.907Z,13.52
2023-05-01T19:32:45.348Z,13.45
2023-05-01T19:35:11.992Z,13.36
2023-05-01T19:37:39.734Z,13.29
2023-05-01T19:40:07.292Z,13.22
2023-05-01T19:42:33.971Z,13.14
2023-05-01T19:45:00.611Z,13.04
2023-05-01T19:47:27.281Z,13.02
2023-05-01T19:49:53.972Z,12.94
2023-05-01T19:52:21.123Z,12.85
2023-05-01T19:54:47.747Z,12.80
2023-05-01T19:57:14.325Z,12.70
2023-05-01T19:59:42.601Z,12.60
2023-05-01T20:02:09.322Z,12.54
2023-05-01T20:04:36.074Z,12.46
2023-05-01T20:07:04.533Z,12.39
2023-05-01T20:09:31.640Z,12.32
2023-05-01T20:11:58.245Z,12.22
2023-05-01T20:14:24.832Z,12.21
2023-05-01T20:16:52.970Z,12.15
2023-05-01T20:19:19.903Z,12.11
2023-05-01T20:21:46.727Z,12.06
2023-05-01T20:24:13.252Z,12.05
2023-05-01T20:26:40.034Z,11.99
2023-05-01T20:29:06.596Z,11.95
2023-05-01T20:31:34.479Z,11.91
2023-05-01T20:34:01.239Z,11.91
2023-05-01T20:36:27.851Z,11.89
2023-05-01T20:38:57.611Z,11.89
2023-05-01T20:41:25.322Z,11.91
2023-05-01T20:43:52.438Z,11.88
2023-05-01T20:46:19.798Z,11.86
2023-05-01T20:48:47.346Z,11.88
2023-05-01T20:51:15.441Z,11.85
2023-05-01T20:53:42.066Z,11.84
2023-05-01T20:56:08.825Z,11.85
2023-05-01T20:58:36.128Z,11.79
2023-05-01T21:01:03.067Z,11.79
2023-05-01T21:03:29.844Z,11.79
2023-05-01T21:06:00.512Z,11.78
2023-05-01T21:08:27.968Z,11.79
2023-05-01T21:10:54.885Z,11.79
2023-05-01T21:13:22.678Z,11.78
2023-05-01T21:15:49.406Z,11.78
2023-05-01T21:18:17.392Z,11.79
2023-05-01T21:20:46.141Z,11.75
2023-05-01T21:23:15.783Z,11.75
2023-05-01T21:25:42.768Z,11.71
2023-05-01T21:28:15.648Z,11.71
2023-05-01T21:30:42.682Z,11.71
2023-05-01T21:33:13.313Z,11.67
2023-05-01T21:35:46.268Z,11.65
2023-05-01T21:38:12.940Z,11.62
2023-05-01T21:40:43.097Z,11.65
2023-05-01T21:43:10.074Z,11.62
2023-05-01T21:45:40.325Z,11.65
2023-05-01T21:48:08.872Z,11.61
2023-05-01T21:50:38.116Z,11.58
2023-05-01T21:53:06.776Z,11.57
2023-05-01T21:55:33.647Z,11.57
2023-05-01T21:58:00.750Z,11.60
2023-05-01T22:00:29.790Z,11.61
2023-05-01T22:02:56.569Z,11.60
2023-05-01T22:05:23.351Z,11.62
2023-05-01T22:07:51.995Z,11.58
2023-05-01T22:10:19.481Z,11.58
2023-05-01T22:12:48.807Z,11.58
2023-05-01T22:15:15.972Z,11.55
2023-05-01T22:17:42.851Z,11.53
2023-05-01T22:20:10.025Z,11.65
2023-05-01T22:22:38.783Z,11.65
2023-05-01T22:25:06.471Z,11.67
2023-05-01T22:27:33.824Z,11.64
2023-05-01T22:30:01.095Z,11.64
2023-05-01T22:32:28.471Z,11.61
2023-05-01T22:34:55.490Z,11.58
2023-05-01T22:37:22.160Z,11.57
2023-05-01T22:39:48.748Z,11.53
2023-05-01T22:42:15.318Z,11.65
2023-05-01T22:44:41.864Z,12.08
2023-05-01T22:47:08.493Z,12.03
2023-05-01T22:49:35.408Z,11.99
2023-05-01T22:52:02.767Z,11.94
2023-05-01T22:54:29.362Z,11.88
2023-05-01T22:56:56.184Z,11.84
2023-05-01T22:59:22.899Z,11.75
2023-05-01T23:01:49.632Z,11.67
2023-05-01T23:04:16.555Z,11.64
2023-05-01T23:06:44.176Z,11.58
2023-05-01T23:09:10.963Z,11.57
2023-05-01T23:11:40.403Z,11.48
2023-05-01T23:14:07.331Z,11.50
2023-05-01T23:16:41.690Z,11.47
2023-05-01T23:19:24.915Z,11.44
2023-05-01T23:22:03.943Z,11.57
2023-05-01T23:24:40.615Z,11.62
2023-05-01T23:27:08.263Z,11.62
2023-05-01T23:29:35.627Z,11.64
2023-05-01T23:32:02.466Z,11.57
2023-05-01T23:34:29.125Z,11.53
2023-05-01T23:36:55.741Z,11.50
2023-05-01T23:39:22.259Z,11.47
2023-05-01T23:41:50.423Z,11.40
2023-05-01T23:44:17.120Z,11.31
2023-05-01T23:46:43.797Z,11.28
2023-05-01T23:49:10.601Z,11.24
2023-05-01T23:51:37.287Z,11.16
2023-05-01T23:54:04.310Z,11.07
2023-05-01T23:56:31.382Z,10.96
2023-05-01T23:58:57.907Z,10.95
